Time,TemperatureF,DewpointF,PressureIn,WindDirection,WindDirectionDegrees,WindSpeedMPH,WindSpeedGustMPH,Humidity,HourlyPrecipIn,Conditions,Clouds,dailyrainin,SoftwareType,DateUTC
2013-01-11 00:05:00,35.8,34.0,30.06,SE,141,1.0,6.0,92,0.07,,,0.01,weatherlink.com 1.10,2013-01-11 05:05:00,
2013-01-11 00:20:00,35.8,34.0,30.05,SE,134,2.0,4.0,93,0.13,,,0.07,weatherlink.com 1.10,2013-01-11 05:20:00,
2013-01-11 00:35:00,35.8,34.0,30.04,NW,315,2.0,3.0,93,0.16,,,0.12,weatherlink.com 1.10,2013-01-11 05:35:00,
2013-01-11 00:50:00,35.9,34.0,30.03,SE,131,1.0,3.0,94,0.19,,,0.17,weatherlink.com 1.10,2013-01-11 05:50:00,
2013-01-11 01:05:00,36.2,35.0,30.03,SE,133,2.0,3.0,94,0.29,,,0.30,weatherlink.com 1.10,2013-01-11 06:05:00,
2013-01-11 01:20:00,36.4,35.0,30.02,SSW,200,1.0,3.0,94,0.27,,,0.34,weatherlink.com 1.10,2013-01-11 06:20:00,
2013-01-11 01:35:00,36.5,35.0,30.01,SE,138,0.0,4.0,95,0.24,,,0.36,weatherlink.com 1.10,2013-01-11 06:35:00,
2013-01-11 01:50:00,36.6,35.0,29.99,SE,130,1.0,3.0,95,0.21,,,0.38,weatherlink.com 1.10,2013-01-11 06:50:00,
2013-01-11 02:05:00,36.7,35.0,29.99,SE,137,0.0,2.0,95,0.12,,,0.42,weatherlink.com 1.10,2013-01-11 07:05:00,
2013-01-11 02:20:00,37.0,36.0,29.99,SE,146,0.0,3.0,95,0.18,,,0.52,weatherlink.com 1.10,2013-01-11 07:20:00,
2013-01-11 02:35:00,37.3,36.0,29.98,SSE,148,0.0,3.0,95,0.18,,,0.54,weatherlink.com 1.10,2013-01-11 07:35:00,
2013-01-11 02:50:00,37.5,36.0,29.96,ESE,114,2.0,3.0,95,0.16,,,0.54,weatherlink.com 1.10,2013-01-11 07:50:00,
2013-01-11 03:05:00,37.7,36.0,29.96,SE,131,2.0,3.0,95,0.11,,,0.54,weatherlink.com 1.10,2013-01-11 08:05:00,
2013-01-11 03:20:00,37.8,37.0,29.95,ESE,120,1.0,5.0,95,0.02,,,0.54,weatherlink.com 1.10,2013-01-11 08:20:00,
2013-01-11 03:35:00,38.0,37.0,29.94,SE,133,0.0,3.0,95,0.00,,,0.54,weatherlink.com 1.10,2013-01-11 08:35:00,
2013-01-11 03:51:00,38.0,37.0,29.92,NW,321,0.0,0.0,95,0.00,,,0.54,weatherlink.com 1.10,2013-01-11 08:51:00,
2013-01-11 04:06:00,38.2,37.0,29.91,West,274,0.0,3.0,95,0.00,,,0.54,weatherlink.com 1.10,2013-01-11 09:06:00,
2013-01-11 04:21:00,38.4,37.0,29.89,ESE,120,0.0,3.0,95,0.00,,,0.54,weatherlink.com 1.10,2013-01-11 09:21:00,
2013-01-11 04:36:00,38.5,37.0,29.88,ESE,122,1.0,3.0,95,0.00,,,0.54,weatherlink.com 1.10,2013-01-11 09:36:00,
2013-01-11 04:51:00,38.7,37.0,29.86,SE,139,0.0,3.0,95,0.01,,,0.55,weatherlink.com 1.10,2013-01-11 09:51:00,
2013-01-11 05:06:00,38.9,38.0,29.85,SE,132,0.0,2.0,95,0.04,,,0.58,weatherlink.com 1.10,2013-01-11 10:06:00,
2013-01-11 05:21:00,39.2,38.0,29.84,SE,124,0.0,2.0,95,0.07,,,0.61,weatherlink.com 1.10,2013-01-11 10:21:00,
2013-01-11 05:36:00,39.5,38.0,29.83,SE,139,1.0,3.0,95,0.07,,,0.61,weatherlink.com 1.10,2013-01-11 10:36:00,
2013-01-11 05:51:00,39.8,39.0,29.81,ESE,119,0.0,3.0,95,0.06,,,0.61,weatherlink.com 1.10,2013-01-11 10:51:00,
2013-01-11 06:06:00,40.0,39.0,29.80,SE,134,0.0,2.0,95,0.05,,,0.63,weatherlink.com 1.10,2013-01-11 11:06:00,
2013-01-11 06:21:00,40.4,39.0,29.79,ESE,121,0.0,2.0,96,0.05,,,0.66,weatherlink.com 1.10,2013-01-11 11:21:00,
2013-01-11 06:36:00,41.5,41.0,29.78,SE,138,0.0,3.0,96,0.07,,,0.68,weatherlink.com 1.10,2013-01-11 11:36:00,
2013-01-11 06:51:00,42.2,41.0,29.77,SE,134,0.0,2.0,96,0.08,,,0.69,weatherlink.com 1.10,2013-01-11 11:51:00,
2013-01-11 07:06:00,42.8,42.0,29.76,ESE,122,2.0,3.0,96,0.07,,,0.70,weatherlink.com 1.10,2013-01-11 12:06:00,
2013-01-11 07:21:00,42.9,42.0,29.75,SE,126,0.0,0.0,96,0.05,,,0.71,weatherlink.com 1.10,2013-01-11 12:21:00,
2013-01-11 07:36:00,43.1,42.0,29.74,ESE,123,0.0,0.0,96,0.03,,,0.71,weatherlink.com 1.10,2013-01-11 12:36:00,
2013-01-11 07:51:00,43.2,42.0,29.73,ESE,118,0.0,0.0,96,0.02,,,0.71,weatherlink.com 1.10,2013-01-11 12:51:00,
2013-01-11 08:06:00,43.9,43.0,29.73,ESE,121,0.0,0.0,97,0.01,,,0.71,weatherlink.com 1.10,2013-01-11 13:06:00,
2013-01-11 08:21:00,44.8,44.0,29.74,SE,134,1.0,2.0,97,0.00,,,0.71,weatherlink.com 1.10,2013-01-11 13:21:00,
2013-01-11 08:37:00,45.4,45.0,29.73,SSE,168,1.0,3.0,97,0.00,,,0.71,weatherlink.com 1.10,2013-01-11 13:37:00,
2013-01-11 08:52:00,45.9,45.0,29.74,ESE,119,0.0,2.0,97,0.00,,,0.71,weatherlink.com 1.10,2013-01-11 13:52:00,
2013-01-11 09:08:00,46.1,45.0,29.74,ESE,115,0.0,1.0,97,0.00,,,0.71,weatherlink.com 1.10,2013-01-11 14:08:00,
2013-01-11 09:22:00,46.7,46.0,29.74,ESE,113,0.0,2.0,97,0.00,,,0.71,weatherlink.com 1.10,2013-01-11 14:22:00,
2013-01-11 09:37:00,47.3,47.0,29.74,ESE,114,2.0,3.0,97,0.00,,,0.71,weatherlink.com 1.10,2013-01-11 14:37:00,
2013-01-11 09:52:00,48.0,47.0,29.74,SSE,155,0.0,7.0,97,0.00,,,0.71,weatherlink.com 1.10,2013-01-11 14:52:00,
2013-01-11 10:07:00,48.3,48.0,29.73,SE,133,0.0,5.0,97,0.00,,,0.71,weatherlink.com 1.10,2013-01-11 15:07:00,
2013-01-11 10:22:00,48.8,48.0,29.73,ESE,120,1.0,4.0,97,0.00,,,0.71,weatherlink.com 1.10,2013-01-11 15:22:00,
2013-01-11 10:37:00,49.3,49.0,29.73,SSE,164,1.0,5.0,97,0.01,,,0.72,weatherlink.com 1.10,2013-01-11 15:37:00,
2013-01-11 10:52:00,49.5,49.0,29.73,SE,138,1.0,3.0,97,0.01,,,0.72,weatherlink.com 1.10,2013-01-11 15:52:00,
2013-01-11 11:07:00,49.6,49.0,29.72,SW,229,0.0,2.0,97,0.01,,,0.72,weatherlink.com 1.10,2013-01-11 16:07:00,
2013-01-11 11:22:00,49.8,49.0,29.72,SW,229,0.0,2.0,97,0.01,,,0.72,weatherlink.com 1.10,2013-01-11 16:22:00,
2013-01-11 11:37:00,50.2,49.0,29.71,SSW,193,0.0,2.0,97,0.00,,,0.72,weatherlink.com 1.10,2013-01-11 16:37:00,
2013-01-11 11:52:00,50.5,50.0,29.70,SSE,162,0.0,1.0,97,0.00,,,0.72,weatherlink.com 1.10,2013-01-11 16:52:00,
2013-01-11 12:07:00,50.7,50.0,29.70,WNW,283,0.0,1.0,97,0.00,,,0.72,weatherlink.com 1.10,2013-01-11 17:07:00,
2013-01-11 12:22:00,50.8,50.0,29.70,SE,131,0.0,0.0,97,0.00,,,0.72,weatherlink.com 1.10,2013-01-11 17:22:00,
2013-01-11 12:37:00,51.5,51.0,29.70,WSW,252,1.0,2.0,97,0.00,,,0.72,weatherlink.com 1.10,2013-01-11 17:37:00,
2013-01-11 12:52:00,51.9,51.0,29.70,WSW,238,0.0,2.0,97,0.01,,,0.73,weatherlink.com 1.10,2013-01-11 17:52:00,
2013-01-11 13:07:00,52.1,51.0,29.70,West,273,1.0,3.0,97,0.01,,,0.73,weatherlink.com 1.10,2013-01-11 18:07:00,
2013-01-11 13:22:00,51.7,51.0,29.70,SW,236,1.0,4.0,97,0.01,,,0.73,weatherlink.com 1.10,2013-01-11 18:22:00,
2013-01-11 13:37:00,51.4,51.0,29.71,SW,228,2.0,4.0,97,0.01,,,0.73,weatherlink.com 1.10,2013-01-11 18:37:00,
2013-01-11 13:52:00,51.2,50.0,29.71,West,278,1.0,5.0,97,0.00,,,0.73,weatherlink.com 1.10,2013-01-11 18:52:00,
2013-01-11 14:07:00,50.7,50.0,29.71,SE,136,2.0,6.0,96,0.00,,,0.73,weatherlink.com 1.10,2013-01-11 19:07:00,
2013-01-11 14:22:00,50.5,49.0,29.72,WNW,292,2.0,4.0,96,0.00,,,0.73,weatherlink.com 1.10,2013-01-11 19:22:00,
2013-01-11 14:37:00,50.5,49.0,29.72,West,276,2.0,6.0,96,0.00,,,0.73,weatherlink.com 1.10,2013-01-11 19:37:00,
2013-01-11 14:52:00,50.4,49.0,29.73,WSW,247,2.0,4.0,96,0.00,,,0.73,weatherlink.com 1.10,2013-01-11 19:52:00,
2013-01-11 15:07:00,50.4,49.0,29.74,WNW,298,1.0,3.0,96,0.00,,,0.73,weatherlink.com 1.10,2013-01-11 20:07:00,
2013-01-11 15:22:00,50.3,49.0,29.75,WSW,256,1.0,3.0,95,0.00,,,0.73,weatherlink.com 1.10,2013-01-11 20:22:00,
2013-01-11 15:37:00,50.3,49.0,29.75,West,275,1.0,4.0,95,0.00,,,0.73,weatherlink.com 1.10,2013-01-11 20:37:00,
2013-01-11 15:52:00,50.0,48.0,29.76,WSW,248,2.0,4.0,94,0.00,,,0.73,weatherlink.com 1.10,2013-01-11 20:52:00,
2013-01-11 16:07:00,49.9,48.0,29.76,WNW,297,0.0,3.0,94,0.00,,,0.73,weatherlink.com 1.10,2013-01-11 21:07:00,
2013-01-11 16:22:00,49.7,48.0,29.77,WSW,243,2.0,5.0,94,0.00,,,0.73,weatherlink.com 1.10,2013-01-11 21:22:00,
2013-01-11 16:37:00,49.4,48.0,29.78,NW,314,2.0,4.0,94,0.00,,,0.73,weatherlink.com 1.10,2013-01-11 21:37:00,
2013-01-11 16:52:00,49.2,48.0,29.78,SSE,155,1.0,3.0,94,0.00,,,0.73,weatherlink.com 1.10,2013-01-11 21:52:00,
2013-01-11 17:07:00,49.1,48.0,29.77,NW,304,0.0,2.0,94,0.00,,,0.73,weatherlink.com 1.10,2013-01-11 22:07:00,
2013-01-11 17:22:00,48.7,47.0,29.79,West,260,0.0,2.0,94,0.00,,,0.73,weatherlink.com 1.10,2013-01-11 22:22:00,
2013-01-11 17:37:00,48.8,47.0,29.79,WSW,242,0.0,0.0,94,0.00,,,0.73,weatherlink.com 1.10,2013-01-11 22:37:00,
2013-01-11 17:52:00,48.9,47.0,29.79,WSW,243,0.0,0.0,94,0.00,,,0.73,weatherlink.com 1.10,2013-01-11 22:52:00,
2013-01-11 18:07:00,48.8,47.0,29.79,South,173,0.0,0.0,94,0.00,,,0.73,weatherlink.com 1.10,2013-01-11 23:07:00,
2013-01-11 18:22:00,48.7,47.0,29.78,WSW,239,1.0,2.0,94,0.00,,,0.73,weatherlink.com 1.10,2013-01-11 23:22:00,
2013-01-11 18:37:00,48.6,47.0,29.77,SSW,208,1.0,6.0,93,0.00,,,0.73,weatherlink.com 1.10,2013-01-11 23:37:00,
2013-01-11 18:52:00,48.6,47.0,29.78,SE,129,0.0,2.0,93,0.00,,,0.73,weatherlink.com 1.10,2013-01-11 23:52:00,
2013-01-11 19:07:00,48.5,46.0,29.80,West,267,1.0,2.0,92,0.00,,,0.73,weatherlink.com 1.10,2013-01-12 00:07:00,
2013-01-11 19:22:00,48.5,46.0,29.79,SE,138,0.0,2.0,92,0.00,,,0.73,weatherlink.com 1.10,2013-01-12 00:22:00,
2013-01-11 19:37:00,48.5,46.0,29.80,WSW,243,0.0,3.0,92,0.00,,,0.73,weatherlink.com 1.10,2013-01-12 00:37:00,
2013-01-11 19:52:00,48.3,46.0,29.79,SSW,205,0.0,1.0,91,0.00,,,0.73,weatherlink.com 1.10,2013-01-12 00:52:00,
2013-01-11 20:07:00,47.6,45.0,29.78,ESE,122,0.0,0.0,92,0.00,,,0.73,weatherlink.com 1.10,2013-01-12 01:07:00,
2013-01-11 20:22:00,47.2,45.0,29.77,ESE,113,0.0,0.0,93,0.00,,,0.73,weatherlink.com 1.10,2013-01-12 01:22:00,
2013-01-11 20:37:00,47.1,45.0,29.77,SE,131,0.0,0.0,93,0.00,,,0.73,weatherlink.com 1.10,2013-01-12 01:37:00,
2013-01-11 20:52:00,46.9,45.0,29.77,ESE,111,0.0,0.0,93,0.00,,,0.73,weatherlink.com 1.10,2013-01-12 01:52:00,
2013-01-11 21:07:00,46.8,45.0,29.78,NNW,332,0.0,0.0,93,0.00,,,0.73,weatherlink.com 1.10,2013-01-12 02:07:00,
2013-01-11 21:22:00,46.5,45.0,29.78,ESE,108,0.0,1.0,94,0.00,,,0.73,weatherlink.com 1.10,2013-01-12 02:22:00,
2013-01-11 21:38:00,46.5,45.0,29.77,ESE,107,0.0,0.0,94,0.00,,,0.73,weatherlink.com 1.10,2013-01-12 02:38:00,
2013-01-11 21:52:00,46.6,45.0,29.77,SE,125,0.0,0.0,94,0.00,,,0.73,weatherlink.com 1.10,2013-01-12 02:52:00,
2013-01-11 22:08:00,47.0,45.0,29.77,SE,139,0.0,3.0,94,0.00,,,0.73,weatherlink.com 1.10,2013-01-12 03:08:00,
2013-01-11 22:23:00,47.3,45.0,29.76,ESE,122,0.0,-999.0,93,-99.99,,,0.73,weatherlink.com 1.10,2013-01-12 03:23:00,
2013-01-11 22:38:00,47.4,46.0,29.75,WNW,290,2.0,3.0,93,0.00,,,0.73,weatherlink.com 1.10,2013-01-12 03:38:00,
2013-01-11 22:53:00,47.9,46.0,29.76,SSW,197,0.0,2.0,92,0.00,,,0.73,weatherlink.com 1.10,2013-01-12 03:53:00,
2013-01-11 23:08:00,47.7,46.0,29.76,SE,142,0.0,0.0,92,0.00,,,0.73,weatherlink.com 1.10,2013-01-12 04:08:00,
2013-01-11 23:23:00,47.6,46.0,29.76,SW,235,0.0,2.0,94,0.00,,,0.73,weatherlink.com 1.10,2013-01-12 04:23:00,
2013-01-11 23:38:00,47.7,46.0,29.75,SE,143,1.0,3.0,93,0.00,,,0.73,weatherlink.com 1.10,2013-01-12 04:38:00,
2013-01-11 23:53:00,47.6,46.0,29.75,SE,131,0.0,3.0,94,0.00,,,0.73,weatherlink.com 1.10,2013-01-12 04:53:00,